Time;durP1;ratioP1;P1;durP2;ratioP2;P2;SDS_P1;SDS_P2;PMS_P1;PMS_P2;Temp;Humidity;BMP_temperature;BMP_pressure;BME280_temperature;BME280_humidity;BME280_pressure;Samples;Min_cycle;Max_cycle;Signal;HPM_P1;HPM_P2
2023/06/03 00:01:19;;;;;;;7.78;5.15;;;;;;;;;;5017091;28;20025;-83
2023/06/03 00:03:45;;;;;;;11.77;5.30;;;;;;;;;;5034231;28;20045;-83
2023/06/03 00:06:12;;;;;;;8.10;5.28;;;;;;;;;;5034888;28;20041;-84
2023/06/03 00:08:39;;;;;;;8.90;5.30;;;;;;;;;;5041434;28;20545;-84
2023/06/03 00:11:04;;;;;;;9.35;5.45;;;;;;;;;;5049701;28;20028;-84
2023/06/03 00:13:29;;;;;;;9.93;5.70;;;;;;;;;;5046348;28;20479;-82
2023/06/03 00:15:55;;;;;;;8.63;5.28;;;;;;;;;;5025417;28;20040;-82
2023/06/03 00:18:21;;;;;;;10.48;5.18;;;;;;;;;;5038856;28;20483;-83
2023/06/03 00:20:47;;;;;;;12.50;6.40;;;;;;;;;;5035349;28;20021;-83
2023/06/03 00:23:16;;;;;;;11.90;5.75;;;;;;;;;;5034289;28;20037;-83
2023/06/03 00:25:42;;;;;;;8.30;5.70;;;;;;;;;;5028289;28;20025;-84
2023/06/03 00:28:08;;;;;;;8.38;5.55;;;;;;;;;;5043479;28;20049;-83
2023/06/03 00:30:34;;;;;;;8.65;5.15;;;;;;;;;;5039869;28;20080;-84
2023/06/03 00:33:00;;;;;;;8.27;5.47;;;;;;;;;;5034897;28;20029;-82
2023/06/03 00:35:25;;;;;;;10.05;5.28;;;;;;;;;;5033900;28;20052;-81
2023/06/03 00:37:53;;;;;;;8.45;5.60;;;;;;;;;;5034307;28;20065;-82
2023/06/03 00:40:19;;;;;;;8.02;5.18;;;;;;;;;;5023796;28;20029;-82
2023/06/03 00:42:44;;;;;;;11.18;5.53;;;;;;;;;;5022187;28;20107;-83
2023/06/03 00:45:10;;;;;;;9.18;5.50;;;;;;;;;;4998817;28;20075;-83
2023/06/03 00:47:36;;;;;;;7.90;5.20;;;;;;;;;;5048800;28;20104;-83
2023/06/03 00:50:02;;;;;;;8.23;5.70;;;;;;;;;;5030432;28;20442;-82
2023/06/03 00:52:27;;;;;;;9.98;5.35;;;;;;;;;;5044763;28;20060;-82
2023/06/03 00:54:53;;;;;;;10.23;5.60;;;;;;;;;;5022541;28;20099;-82
2023/06/03 00:57:20;;;;;;;10.40;5.80;;;;;;;;;;5037008;28;20518;-83
2023/06/03 00:59:46;;;;;;;12.00;5.90;;;;;;;;;;5022536;28;20120;-82
2023/06/03 01:02:13;;;;;;;11.13;5.90;;;;;;;;;;5027467;28;20491;-83
2023/06/03 01:04:42;;;;;;;9.20;6.07;;;;;;;;;;5015655;28;20026;-83
2023/06/03 01:07:18;;;;;;;11.40;6.10;;;;;;;;;;5015776;28;20033;-82
2023/06/03 01:09:55;;;;;;;9.52;5.85;;;;;;;;;;5018692;28;20029;-82
2023/06/03 01:12:26;;;;;;;10.88;5.88;;;;;;;;;;5031512;28;20479;-85
2023/06/03 01:14:57;;;;;;;8.30;5.90;;;;;;;;;;5015672;28;20025;-84
2023/06/03 01:17:27;;;;;;;9.90;5.82;;;;;;;;;;5030808;28;20095;-83
2023/06/03 01:19:56;;;;;;;8.85;5.53;;;;;;;;;;5032840;28;20033;-83
2023/06/03 01:22:26;;;;;;;9.38;5.47;;;;;;;;;;5018455;28;20013;-81
2023/06/03 01:25:06;;;;;;;10.07;5.65;;;;;;;;;;5003156;28;20142;-81
2023/06/03 01:27:32;;;;;;;8.90;5.78;;;;;;;;;;5049277;28;20041;-82
2023/06/03 01:29:59;;;;;;;10.73;5.60;;;;;;;;;;5043328;28;20031;-82
2023/06/03 01:32:25;;;;;;;9.85;5.60;;;;;;;;;;5023269;28;20028;-82
2023/06/03 01:34:51;;;;;;;9.93;6.20;;;;;;;;;;5019969;28;20410;-83
2023/06/03 01:37:17;;;;;;;12.07;6.00;;;;;;;;;;5033691;28;20030;-84
2023/06/03 01:39:43;;;;;;;9.25;6.00;;;;;;;;;;5032998;28;20029;-84
2023/06/03 01:42:11;;;;;;;8.63;6.20;;;;;;;;;;5032610;28;20021;-82
2023/06/03 01:44:38;;;;;;;11.18;6.40;;;;;;;;;;5021718;28;20036;-82
2023/06/03 01:47:04;;;;;;;8.00;5.80;;;;;;;;;;5037968;28;20037;-82
2023/06/03 01:49:31;;;;;;;10.05;6.10;;;;;;;;;;5018909;28;20052;-82
2023/06/03 01:52:01;;;;;;;9.07;6.07;;;;;;;;;;5032439;28;20041;-82
2023/06/03 01:54:29;;;;;;;10.93;6.28;;;;;;;;;;5028230;28;20029;-84
2023/06/03 01:56:56;;;;;;;10.77;6.25;;;;;;;;;;5023886;28;20017;-83
2023/06/03 01:59:23;;;;;;;10.45;5.68;;;;;;;;;;5020710;28;20491;-83
2023/06/03 02:01:57;;;;;;;8.25;5.90;;;;;;;;;;5032479;28;20017;-83
2023/06/03 02:04:23;;;;;;;10.55;6.00;;;;;;;;;;5032270;28;20047;-83
2023/06/03 02:06:55;;;;;;;12.45;6.00;;;;;;;;;;5028512;28;20506;-82
2023/06/03 02:09:21;;;;;;;10.75;6.40;;;;;;;;;;5025700;28;20079;-82
2023/06/03 02:11:48;;;;;;;8.00;5.63;;;;;;;;;;5025306;28;20399;-82
2023/06/03 02:14:14;;;;;;;8.02;5.28;;;;;;;;;;5021200;28;20037;-83
2023/06/03 02:16:42;;;;;;;10.27;5.85;;;;;;;;;;5019460;28;20033;-82
2023/06/03 02:19:16;;;;;;;9.40;5.30;;;;;;;;;;5018975;28;20029;-83
2023/06/03 02:21:42;;;;;;;9.35;5.97;;;;;;;;;;5033875;28;20084;-83
2023/06/03 02:24:10;;;;;;;12.98;5.45;;;;;;;;;;5018994;28;20438;-83
2023/06/03 02:26:38;;;;;;;9.52;5.88;;;;;;;;;;5020579;28;20035;-82
2023/06/03 02:29:06;;;;;;;12.15;5.80;;;;;;;;;;5027937;28;20032;-82
2023/06/03 02:31:32;;;;;;;10.25;6.03;;;;;;;;;;4988374;28;20061;-83
2023/06/03 02:33:59;;;;;;;9.43;5.55;;;;;;;;;;5025740;28;20044;-84
2023/06/03 02:36:25;;;;;;;8.45;5.70;;;;;;;;;;5026021;28;20033;-83
2023/06/03 02:38:50;;;;;;;10.80;6.22;;;;;;;;;;5021955;28;20056;-84
2023/06/03 02:41:15;;;;;;;10.52;6.15;;;;;;;;;;5028496;28;20271;-84
2023/06/03 02:43:42;;;;;;;12.95;6.28;;;;;;;;;;5033841;28;20036;-84
2023/06/03 02:46:07;;;;;;;13.88;6.38;;;;;;;;;;5029444;28;20039;-83
2023/06/03 02:48:34;;;;;;;9.75;5.70;;;;;;;;;;5026200;28;20132;-82
2023/06/03 02:51:00;;;;;;;8.70;6.13;;;;;;;;;;5017789;28;20096;-81
2023/06/03 02:53:25;;;;;;;8.18;5.45;;;;;;;;;;5023058;28;20075;-82
2023/06/03 02:55:51;;;;;;;7.13;5.70;;;;;;;;;;5034873;28;20029;-81
2023/06/03 02:58:17;;;;;;;7.78;6.15;;;;;;;;;;5031154;28;20068;-82
2023/06/03 03:00:43;;;;;;;11.07;6.72;;;;;;;;;;5044439;28;20052;-82
2023/06/03 03:03:09;;;;;;;9.40;6.30;;;;;;;;;;5023230;28;20088;-82
2023/06/03 03:05:35;;;;;;;11.25;6.80;;;;;;;;;;5016004;28;20128;-83
2023/06/03 03:08:02;;;;;;;10.43;6.68;;;;;;;;;;5031793;28;20059;-84
2023/06/03 03:10:28;;;;;;;8.50;5.90;;;;;;;;;;5002013;28;20037;-81
2023/06/03 03:12:54;;;;;;;10.07;6.03;;;;;;;;;;5018086;28;20032;-83
2023/06/03 03:15:21;;;;;;;9.18;6.20;;;;;;;;;;5021862;28;20029;-84
2023/06/03 03:17:47;;;;;;;9.48;6.03;;;;;;;;;;5019780;28;20092;-83
2023/06/03 03:20:13;;;;;;;8.18;6.30;;;;;;;;;;5031079;28;20075;-84
2023/06/03 03:22:44;;;;;;;8.90;6.13;;;;;;;;;;5028913;28;20025;-83
2023/06/03 03:25:12;;;;;;;8.60;5.97;;;;;;;;;;5028691;28;20036;-82
2023/06/03 03:27:41;;;;;;;12.45;5.93;;;;;;;;;;5024149;28;20497;-82
2023/06/03 03:30:08;;;;;;;9.02;5.80;;;;;;;;;;5017063;28;20033;-82
2023/06/03 03:32:35;;;;;;;9.95;5.60;;;;;;;;;;5026499;28;20052;-82
2023/06/03 03:35:13;;;;;;;9.10;5.57;;;;;;;;;;5030564;28;20067;-82
2023/06/03 03:37:40;;;;;;;9.13;5.80;;;;;;;;;;5024882;28;20029;-82
2023/06/03 03:40:20;;;;;;;10.65;5.35;;;;;;;;;;5022513;28;20095;-82
2023/06/03 03:42:53;;;;;;;9.70;5.93;;;;;;;;;;5015932;28;20030;-82
2023/06/03 03:45:30;;;;;;;9.83;5.70;;;;;;;;;;5029940;28;20033;-82
2023/06/03 03:48:05;;;;;;;11.23;5.78;;;;;;;;;;5030224;28;20030;-83
2023/06/03 03:50:39;;;;;;;8.20;5.78;;;;;;;;;;5008222;28;20379;-82
2023/06/03 03:53:07;;;;;;;8.73;5.72;;;;;;;;;;5015863;28;20061;-82
2023/06/03 03:55:38;;;;;;;13.80;6.63;;;;;;;;;;5018459;28;20029;-82
2023/06/03 03:58:09;;;;;;;9.40;6.07;;;;;;;;;;5016986;28;20037;-82
2023/06/03 04:00:35;;;;;;;9.55;5.95;;;;;;;;;;5017027;28;20033;-82
2023/06/03 04:03:00;;;;;;;8.32;5.90;;;;;;;;;;5033823;28;20033;-82
2023/06/03 04:05:26;;;;;;;10.07;6.10;;;;;;;;;;5034700;28;20605;-81
2023/06/03 04:07:51;;;;;;;9.43;5.72;;;;;;;;;;5005755;28;20043;-82
2023/06/03 04:10:20;;;;;;;11.05;5.70;;;;;;;;;;5021226;28;20038;-82
2023/06/03 04:12:47;;;;;;;7.13;5.50;;;;;;;;;;4999634;28;20180;-82
2023/06/03 04:15:13;;;;;;;9.18;5.63;;;;;;;;;;5029056;28;20041;-82
2023/06/03 04:17:40;;;;;;;8.10;5.78;;;;;;;;;;5031876;28;20036;-82
2023/06/03 04:20:40;;;;;;;9.55;5.82;;;;;;;;;;5011638;28;20032;-82
2023/06/03 04:23:13;;;;;;;12.55;6.38;;;;;;;;;;5025160;28;20037;-82
2023/06/03 04:25:41;;;;;;;10.20;6.32;;;;;;;;;;5021916;28;20033;-82
2023/06/03 04:28:07;;;;;;;10.50;6.22;;;;;;;;;;5019806;28;20056;-82
2023/06/03 04:30:35;;;;;;;9.38;6.00;;;;;;;;;;5020631;28;20403;-81
2023/06/03 04:33:01;;;;;;;10.80;6.20;;;;;;;;;;5032238;28;20030;-81
2023/06/03 04:35:29;;;;;;;9.50;6.00;;;;;;;;;;5029529;28;20410;-82
2023/06/03 04:37:57;;;;;;;9.57;6.35;;;;;;;;;;5026704;28;20124;-81
2023/06/03 04:40:22;;;;;;;9.82;6.60;;;;;;;;;;5032118;28;20099;-82
2023/06/03 04:42:49;;;;;;;8.40;6.15;;;;;;;;;;5015892;28;20038;-82
2023/06/03 04:45:16;;;;;;;8.93;6.03;;;;;;;;;;5016960;28;20033;-82
2023/06/03 04:47:42;;;;;;;9.93;6.38;;;;;;;;;;5015545;28;20095;-82
2023/06/03 04:50:09;;;;;;;9.73;6.43;;;;;;;;;;5031226;28;20029;-82
2023/06/03 04:52:35;;;;;;;13.80;7.05;;;;;;;;;;5028072;28;20048;-82
2023/06/03 04:55:02;;;;;;;13.43;7.32;;;;;;;;;;5026009;28;20040;-83
2023/06/03 04:57:28;;;;;;;13.50;7.50;;;;;;;;;;5022276;28;20120;-83
2023/06/03 04:59:54;;;;;;;11.07;7.57;;;;;;;;;;5019737;28;20117;-83
2023/06/03 05:02:23;;;;;;;12.27;6.97;;;;;;;;;;5000150;28;20063;-82
2023/06/03 05:04:50;;;;;;;11.77;7.32;;;;;;;;;;5033773;28;20028;-83
2023/06/03 05:07:17;;;;;;;9.25;6.70;;;;;;;;;;5030970;28;20059;-83
2023/06/03 05:09:43;;;;;;;15.35;7.40;;;;;;;;;;5027507;28;20036;-82
2023/06/03 05:12:09;;;;;;;11.02;7.05;;;;;;;;;;5024318;28;20039;-82
2023/06/03 05:14:35;;;;;;;9.77;6.68;;;;;;;;;;5014149;28;20037;-83
2023/06/03 05:17:01;;;;;;;11.52;6.70;;;;;;;;;;5033195;28;20030;-82
2023/06/03 05:19:27;;;;;;;9.85;6.60;;;;;;;;;;5016115;28;20603;-82
2023/06/03 05:21:53;;;;;;;11.25;6.82;;;;;;;;;;5033220;28;20029;-83
2023/06/03 05:24:18;;;;;;;15.75;6.78;;;;;;;;;;5033174;28;20061;-83
2023/06/03 05:26:44;;;;;;;11.60;7.47;;;;;;;;;;5024181;28;20040;-83
2023/06/03 05:29:09;;;;;;;11.27;6.57;;;;;;;;;;5024316;28;20040;-83
2023/06/03 05:31:35;;;;;;;9.45;6.53;;;;;;;;;;5021308;28;20127;-83
2023/06/03 05:34:02;;;;;;;12.73;6.65;;;;;;;;;;5018753;28;20112;-83
2023/06/03 05:36:27;;;;;;;9.27;6.40;;;;;;;;;;5018743;28;20121;-83
2023/06/03 05:38:55;;;;;;;10.30;6.43;;;;;;;;;;5031251;28;20040;-83
2023/06/03 05:41:21;;;;;;;10.00;5.85;;;;;;;;;;5029660;28;20032;-83
2023/06/03 05:43:48;;;;;;;12.38;6.40;;;;;;;;;;5010323;28;20053;-83
2023/06/03 05:46:13;;;;;;;9.98;6.15;;;;;;;;;;5041355;28;20037;-83
2023/06/03 05:48:39;;;;;;;13.63;6.20;;;;;;;;;;5023603;28;20094;-82
2023/06/03 05:51:06;;;;;;;8.50;5.85;;;;;;;;;;5021500;28;20042;-83
2023/06/03 05:53:31;;;;;;;9.55;5.75;;;;;;;;;;5026815;28;20040;-84
2023/06/03 05:56:00;;;;;;;10.45;6.40;;;;;;;;;;5035856;28;20038;-84
2023/06/03 05:58:28;;;;;;;10.35;6.65;;;;;;;;;;5013551;28;20064;-83
2023/06/03 06:00:53;;;;;;;12.75;6.47;;;;;;;;;;5018929;28;20079;-83
2023/06/03 06:03:19;;;;;;;10.18;6.10;;;;;;;;;;5018593;28;20506;-82
2023/06/03 06:05:45;;;;;;;9.20;5.95;;;;;;;;;;5018621;28;20065;-82
2023/06/03 06:08:12;;;;;;;11.88;6.05;;;;;;;;;;5018564;28;20049;-81
2023/06/03 06:10:37;;;;;;;11.20;5.65;;;;;;;;;;5035470;28;20029;-83
2023/06/03 06:13:04;;;;;;;10.48;5.78;;;;;;;;;;5034048;28;20039;-83
2023/06/03 06:15:30;;;;;;;12.98;5.82;;;;;;;;;;5030901;28;20036;-83
2023/06/03 06:17:56;;;;;;;13.88;5.32;;;;;;;;;;5046808;28;20124;-83
2023/06/03 06:20:23;;;;;;;12.23;6.18;;;;;;;;;;5025262;28;20154;-83
2023/06/03 06:22:49;;;;;;;9.05;5.22;;;;;;;;;;5022195;28;20033;-84
2023/06/03 06:25:15;;;;;;;12.57;5.95;;;;;;;;;;5016102;28;20042;-83
2023/06/03 06:27:41;;;;;;;8.18;5.55;;;;;;;;;;5035534;28;20439;-83
2023/06/03 06:30:08;;;;;;;11.75;5.65;;;;;;;;;;5033754;28;20040;-83
2023/06/03 06:32:53;;;;;;;11.63;5.45;;;;;;;;;;5030907;28;20398;-83
2023/06/03 06:35:28;;;;;;;12.35;5.60;;;;;;;;;;5013142;28;20033;-84
2023/06/03 06:37:57;;;;;;;10.98;5.78;;;;;;;;;;5023468;28;20037;-84
2023/06/03 06:40:33;;;;;;;12.20;6.10;;;;;;;;;;5019881;28;20037;-82
2023/06/03 06:43:00;;;;;;;10.40;5.53;;;;;;;;;;5024673;28;20526;-83
2023/06/03 06:45:37;;;;;;;10.80;5.93;;;;;;;;;;5034198;28;20037;-83
2023/06/03 06:48:08;;;;;;;9.20;5.65;;;;;;;;;;5032003;28;20418;-84
2023/06/03 06:50:50;;;;;;;13.93;6.10;;;;;;;;;;5027489;28;20507;-82
2023/06/03 06:53:19;;;;;;;12.48;5.78;;;;;;;;;;5032175;28;20038;-84
2023/06/03 06:55:53;;;;;;;12.88;6.30;;;;;;;;;;5020904;28;20037;-83
2023/06/03 06:58:35;;;;;;;12.68;6.20;;;;;;;;;;5018061;28;20030;-86
2023/06/03 07:01:05;;;;;;;10.68;5.97;;;;;;;;;;5035794;28;20036;-87
2023/06/03 07:03:32;;;;;;;17.58;6.50;;;;;;;;;;5016416;28;20040;-83
2023/06/03 07:05:59;;;;;;;10.93;5.90;;;;;;;;;;5047494;28;20033;-83
2023/06/03 07:08:27;;;;;;;12.48;5.63;;;;;;;;;;5026326;28;20036;-83
2023/06/03 07:10:59;;;;;;;12.23;5.55;;;;;;;;;;5020971;28;20033;-82
2023/06/03 07:13:26;;;;;;;10.02;5.55;;;;;;;;;;5017252;28;20120;-83
2023/06/03 07:15:52;;;;;;;10.60;5.95;;;;;;;;;;5018028;28;20511;-82
2023/06/03 07:18:19;;;;;;;10.63;5.55;;;;;;;;;;5017924;28;20037;-83
2023/06/03 07:20:46;;;;;;;14.07;6.20;;;;;;;;;;5017744;28;20038;-83
2023/06/03 07:23:18;;;;;;;9.52;5.50;;;;;;;;;;5035597;28;20045;-83
2023/06/03 07:25:45;;;;;;;11.68;5.78;;;;;;;;;;5023414;28;20100;-83
2023/06/03 07:28:18;;;;;;;13.48;5.85;;;;;;;;;;5022289;28;20526;-81
2023/06/03 07:30:47;;;;;;;10.80;5.07;;;;;;;;;;5006674;28;20021;-84
2023/06/03 07:33:33;;;;;;;10.43;5.35;;;;;;;;;;5019137;28;20034;-83
2023/06/03 07:36:03;;;;;;;9.05;5.72;;;;;;;;;;5020681;28;20048;-84
2023/06/03 07:38:37;;;;;;;11.65;5.28;;;;;;;;;;5026490;28;20060;-83
2023/06/03 07:41:06;;;;;;;12.25;5.70;;;;;;;;;;5026407;28;20123;-84
2023/06/03 07:43:33;;;;;;;11.48;6.07;;;;;;;;;;5005873;28;20032;-83
2023/06/03 07:46:03;;;;;;;9.45;5.32;;;;;;;;;;5020657;28;20041;-84
2023/06/03 07:48:28;;;;;;;11.23;5.60;;;;;;;;;;5033068;28;20033;-83
2023/06/03 07:50:54;;;;;;;13.05;6.40;;;;;;;;;;5034890;28;20044;-83
2023/06/03 07:53:23;;;;;;;19.63;6.05;;;;;;;;;;5034740;28;20029;-83
2023/06/03 07:55:50;;;;;;;9.05;5.50;;;;;;;;;;5034692;28;20036;-83
2023/06/03 07:58:16;;;;;;;13.13;5.68;;;;;;;;;;5022054;28;20040;-83
2023/06/03 08:01:00;;;;;;;12.65;5.80;;;;;;;;;;5040152;28;20033;-82
2023/06/03 08:03:26;;;;;;;9.23;5.75;;;;;;;;;;5016708;28;20144;-83
2023/06/03 08:05:51;;;;;;;10.82;5.68;;;;;;;;;;5035806;28;20112;-84
2023/06/03 08:08:28;;;;;;;9.07;5.35;;;;;;;;;;5016214;28;20559;-83
2023/06/03 08:10:54;;;;;;;9.80;5.10;;;;;;;;;;5047854;28;20029;-83
2023/06/03 08:13:19;;;;;;;10.70;5.63;;;;;;;;;;5027581;28;20478;-83
2023/06/03 08:15:47;;;;;;;10.75;5.63;;;;;;;;;;5022833;28;20050;-83
2023/06/03 08:18:32;;;;;;;9.65;5.65;;;;;;;;;;5037458;28;20036;-83
2023/06/03 08:21:02;;;;;;;10.40;5.60;;;;;;;;;;5035285;28;20124;-83
2023/06/03 08:23:27;;;;;;;9.98;5.72;;;;;;;;;;5016317;28;20569;-82
2023/06/03 08:25:53;;;;;;;18.85;5.85;;;;;;;;;;5034785;28;20033;-83
2023/06/03 08:28:18;;;;;;;9.15;6.15;;;;;;;;;;5033860;28;20474;-83
2023/06/03 08:30:44;;;;;;;11.55;5.70;;;;;;;;;;5034289;28;20045;-83
2023/06/03 08:33:09;;;;;;;10.80;5.50;;;;;;;;;;5003136;28;20043;-83
2023/06/03 08:35:35;;;;;;;11.35;6.05;;;;;;;;;;5034868;28;20044;-84
2023/06/03 08:38:00;;;;;;;9.18;5.75;;;;;;;;;;5015706;28;20061;-82
2023/06/03 08:40:26;;;;;;;10.45;5.50;;;;;;;;;;5033408;28;20084;-83
2023/06/03 08:43:01;;;;;;;9.70;5.63;;;;;;;;;;5035372;28;20048;-84
2023/06/03 08:45:34;;;;;;;11.27;5.30;;;;;;;;;;5036546;28;20060;-85
2023/06/03 08:48:06;;;;;;;9.52;5.70;;;;;;;;;;5017716;28;20391;-85
2023/06/03 08:50:33;;;;;;;9.73;5.55;;;;;;;;;;5026276;28;20049;-84
2023/06/03 08:53:03;;;;;;;9.80;5.07;;;;;;;;;;5029609;28;20091;-84
2023/06/03 08:55:30;;;;;;;8.38;4.90;;;;;;;;;;5023647;28;20067;-86
2023/06/03 08:57:59;;;;;;;9.63;4.70;;;;;;;;;;5021168;28;20029;-82
2023/06/03 09:00:26;;;;;;;8.57;5.15;;;;;;;;;;5033149;28;20033;-83
2023/06/03 09:02:52;;;;;;;8.25;4.82;;;;;;;;;;5031930;28;20040;-83
2023/06/03 09:05:21;;;;;;;7.65;4.50;;;;;;;;;;5050035;28;20045;-83
2023/06/03 09:07:50;;;;;;;7.75;4.72;;;;;;;;;;5008300;28;20040;-83
2023/06/03 09:10:25;;;;;;;8.75;4.78;;;;;;;;;;5021316;28;20120;-84
2023/06/03 09:12:55;;;;;;;10.73;4.60;;;;;;;;;;5029995;28;20036;-83
2023/06/03 09:15:22;;;;;;;7.75;4.82;;;;;;;;;;5047537;28;20092;-83
2023/06/03 09:17:48;;;;;;;6.82;4.43;;;;;;;;;;5035428;28;20033;-83
2023/06/03 09:20:14;;;;;;;10.52;4.90;;;;;;;;;;5050310;28;20578;-83
2023/06/03 09:22:46;;;;;;;9.48;4.53;;;;;;;;;;5014152;28;20042;-87
2023/06/03 09:25:12;;;;;;;11.33;4.97;;;;;;;;;;5041915;28;20059;-84
2023/06/03 09:27:39;;;;;;;7.38;4.90;;;;;;;;;;5040019;28;20172;-83
2023/06/03 09:30:06;;;;;;;8.68;4.20;;;;;;;;;;5037603;28;20876;-83
2023/06/03 09:32:35;;;;;;;10.57;4.30;;;;;;;;;;5018584;28;20176;-84
2023/06/03 09:35:04;;;;;;;7.90;4.57;;;;;;;;;;5018077;28;20037;-84
2023/06/03 09:37:34;;;;;;;11.18;4.38;;;;;;;;;;5028419;28;20021;-84
2023/06/03 09:40:00;;;;;;;8.65;4.60;;;;;;;;;;5046052;28;20057;-84
2023/06/03 09:42:43;;;;;;;6.25;4.22;;;;;;;;;;5039375;28;20116;-83
2023/06/03 09:45:25;;;;;;;9.13;4.72;;;;;;;;;;5034473;28;20101;-84
2023/06/03 09:47:52;;;;;;;6.97;4.60;;;;;;;;;;5044117;28;20060;-84
2023/06/03 09:50:17;;;;;;;6.38;4.18;;;;;;;;;;5035156;28;20029;-83
2023/06/03 09:52:43;;;;;;;8.55;4.40;;;;;;;;;;5054343;28;20072;-83
2023/06/03 09:55:10;;;;;;;6.97;4.15;;;;;;;;;;5036190;28;20061;-84
2023/06/03 09:57:37;;;;;;;9.18;4.60;;;;;;;;;;5032153;28;20083;-84
2023/06/03 10:00:07;;;;;;;8.98;4.72;;;;;;;;;;5028802;28;20081;-85
2023/06/03 10:02:44;;;;;;;14.45;5.25;;;;;;;;;;5037137;28;20060;-84
2023/06/03 10:05:27;;;;;;;11.63;4.95;;;;;;;;;;5036358;28;20026;-84
2023/06/03 10:07:53;;;;;;;7.88;5.07;;;;;;;;;;5018975;28;20112;-83
2023/06/03 10:10:19;;;;;;;9.00;5.10;;;;;;;;;;5017328;28;20092;-85
2023/06/03 10:12:46;;;;;;;7.38;4.65;;;;;;;;;;5034893;28;20077;-85
2023/06/03 10:15:12;;;;;;;12.23;5.03;;;;;;;;;;5041313;28;20041;-85
2023/06/03 10:17:45;;;;;;;11.70;5.10;;;;;;;;;;5041125;28;20037;-84
2023/06/03 10:20:11;;;;;;;8.40;4.68;;;;;;;;;;5016327;28;20041;-84
2023/06/03 10:22:39;;;;;;;5.80;4.30;;;;;;;;;;5035017;28;20041;-83
2023/06/03 10:25:08;;;;;;;7.85;4.53;;;;;;;;;;5035268;28;20040;-84
2023/06/03 10:27:34;;;;;;;10.63;4.70;;;;;;;;;;5035330;28;20041;-84
2023/06/03 10:30:01;;;;;;;9.35;4.55;;;;;;;;;;5023301;28;20033;-84
2023/06/03 10:32:27;;;;;;;8.55;4.90;;;;;;;;;;5036940;28;20037;-84
2023/06/03 10:34:55;;;;;;;7.82;4.80;;;;;;;;;;5002084;28;20034;-84
2023/06/03 10:37:23;;;;;;;13.68;4.70;;;;;;;;;;5039136;28;20041;-83
2023/06/03 10:39:49;;;;;;;9.15;4.40;;;;;;;;;;5021236;28;20041;-84
2023/06/03 10:42:14;;;;;;;11.00;4.78;;;;;;;;;;5041847;28;20055;-84
2023/06/03 10:44:40;;;;;;;6.78;4.63;;;;;;;;;;5024993;28;20033;-85
2023/06/03 10:47:28;;;;;;;10.18;4.32;;;;;;;;;;5037924;28;20034;-85
2023/06/03 10:50:00;;;;;;;8.52;4.40;;;;;;;;;;5043634;28;20104;-84
2023/06/03 10:52:51;;;;;;;10.15;4.32;;;;;;;;;;5025986;28;20052;-86
2023/06/03 10:55:35;;;;;;;8.02;4.22;;;;;;;;;;5019272;28;20034;-86
2023/06/03 10:58:07;;;;;;;16.63;4.80;;;;;;;;;;5036565;28;20044;-87
2023/06/03 11:00:51;;;;;;;10.52;4.50;;;;;;;;;;5039081;28;20046;-87
2023/06/03 11:03:17;;;;;;;7.22;4.20;;;;;;;;;;5027861;28;20096;-87
2023/06/03 11:05:45;;;;;;;9.63;4.80;;;;;;;;;;5026318;28;20565;-87
2023/06/03 11:08:11;;;;;;;6.93;4.15;;;;;;;;;;5004151;28;20141;-87
2023/06/03 11:10:36;;;;;;;9.15;4.10;;;;;;;;;;5020253;28;20037;-86
2023/06/03 11:13:03;;;;;;;7.85;4.30;;;;;;;;;;5037799;28;20041;-87
2023/06/03 11:16:00;;;;;;;9.27;4.00;;;;;;;;;;5019942;28;20179;-88
2023/06/03 11:18:27;;;;;;;10.63;4.43;;;;;;;;;;5035872;28;20064;-87
2023/06/03 11:20:52;;;;;;;10.88;4.40;;;;;;;;;;5019950;28;20048;-87
2023/06/03 11:23:44;;;;;;;7.57;4.30;;;;;;;;;;5036798;28;20042;-88
2023/06/03 11:26:29;;;;;;;9.13;4.30;;;;;;;;;;5002973;28;20033;-88
2023/06/03 11:28:55;;;;;;;10.73;4.38;;;;;;;;;;5019513;28;20572;-87
2023/06/03 11:31:21;;;;;;;7.97;4.20;;;;;;;;;;5038737;28;20135;-87
2023/06/03 11:34:25;;;;;;;8.55;4.00;;;;;;;;;;5037957;28;20088;-88
2023/06/03 11:36:51;;;;;;;13.88;4.43;;;;;;;;;;5036980;28;20510;-86
2023/06/03 11:39:16;;;;;;;10.90;4.30;;;;;;;;;;5037220;28;20042;-87
2023/06/03 11:42:08;;;;;;;10.35;4.20;;;;;;;;;;5019722;28;20045;-87
2023/06/03 11:44:35;;;;;;;7.75;3.90;;;;;;;;;;5036790;28;20041;-87
2023/06/03 11:47:01;;;;;;;6.80;3.95;;;;;;;;;;5035349;28;20029;-86
2023/06/03 11:49:26;;;;;;;16.25;4.13;;;;;;;;;;5037082;28;20093;-87
2023/06/03 11:51:57;;;;;;;8.38;4.10;;;;;;;;;;5037249;28;20195;-87
2023/06/03 11:54:22;;;;;;;10.13;4.00;;;;;;;;;;5038376;28;20399;-87
2023/06/03 11:56:49;;;;;;;8.52;4.10;;;;;;;;;;5039095;28;20029;-86
2023/06/03 11:59:17;;;;;;;9.90;4.28;;;;;;;;;;5034000;28;20033;-87
2023/06/03 12:02:05;;;;;;;11.52;4.18;;;;;;;;;;5037380;28;20045;-87
2023/06/03 12:04:32;;;;;;;8.65;3.92;;;;;;;;;;5036818;28;20124;-87
2023/06/03 12:06:58;;;;;;;7.18;4.38;;;;;;;;;;5037146;28;20487;-87
2023/06/03 12:09:26;;;;;;;12.23;4.40;;;;;;;;;;5037476;28;20045;-86
2023/06/03 12:11:52;;;;;;;20.60;4.65;;;;;;;;;;5022646;28;20033;-87
2023/06/03 12:14:26;;;;;;;7.70;3.97;;;;;;;;;;5038798;28;20132;-88
2023/06/03 12:16:53;;;;;;;7.50;4.13;;;;;;;;;;5019808;28;20037;-87
2023/06/03 12:19:18;;;;;;;7.07;4.10;;;;;;;;;;5052060;28;20125;-87
2023/06/03 12:21:44;;;;;;;10.20;3.92;;;;;;;;;;5014752;28;20061;-87
2023/06/03 12:24:12;;;;;;;10.75;4.00;;;;;;;;;;5027660;28;20033;-87
2023/06/03 12:26:39;;;;;;;7.57;4.25;;;;;;;;;;5040586;28;20037;-87
2023/06/03 12:29:06;;;;;;;9.20;3.78;;;;;;;;;;5040186;28;20483;-87
2023/06/03 12:31:31;;;;;;;9.27;4.53;;;;;;;;;;5021738;28;20045;-87
2023/06/03 12:33:57;;;;;;;9.48;4.05;;;;;;;;;;5037136;28;20072;-87
2023/06/03 12:36:22;;;;;;;8.80;3.95;;;;;;;;;;5037892;28;20033;-87
2023/06/03 12:38:56;;;;;;;8.82;3.83;;;;;;;;;;5020707;28;20029;-88
2023/06/03 12:41:22;;;;;;;8.85;4.22;;;;;;;;;;5027287;28;20033;-86
2023/06/03 12:43:49;;;;;;;8.25;4.28;;;;;;;;;;5025864;28;20037;-87
2023/06/03 12:46:16;;;;;;;6.70;3.90;;;;;;;;;;5039393;28;20037;-87
2023/06/03 12:48:42;;;;;;;6.93;3.95;;;;;;;;;;5039542;28;20040;-87
2023/06/03 12:51:25;;;;;;;8.93;4.03;;;;;;;;;;5019700;28;20510;-87
2023/06/03 12:53:55;;;;;;;8.10;4.20;;;;;;;;;;5037160;28;20060;-87
2023/06/03 12:56:24;;;;;;;6.38;4.05;;;;;;;;;;5036436;28;20037;-87
2023/06/03 12:58:55;;;;;;;8.30;4.22;;;;;;;;;;5035392;28;20478;-87
2023/06/03 13:01:22;;;;;;;7.97;4.30;;;;;;;;;;5022038;28;20205;-87
2023/06/03 13:03:48;;;;;;;8.13;3.92;;;;;;;;;;5037294;28;20080;-87
2023/06/03 13:06:14;;;;;;;13.05;4.03;;;;;;;;;;5038137;28;20088;-87
2023/06/03 13:08:41;;;;;;;12.10;4.00;;;;;;;;;;5036555;28;20554;-87
2023/06/03 13:11:06;;;;;;;6.65;3.67;;;;;;;;;;5002110;28;20044;-86
2023/06/03 13:13:33;;;;;;;12.45;4.20;;;;;;;;;;5036467;28;20037;-87
2023/06/03 13:16:03;;;;;;;10.18;4.55;;;;;;;;;;5022922;28;20403;-86
2023/06/03 13:18:29;;;;;;;8.93;4.13;;;;;;;;;;5036523;28;20400;-87
2023/06/03 13:20:54;;;;;;;9.23;4.28;;;;;;;;;;5024209;28;20533;-87
2023/06/03 13:23:20;;;;;;;9.45;4.60;;;;;;;;;;5052574;28;20480;-87
2023/06/03 13:25:46;;;;;;;11.98;4.55;;;;;;;;;;5031630;28;20053;-87
2023/06/03 13:28:12;;;;;;;7.55;4.45;;;;;;;;;;5046418;28;20032;-86
2023/06/03 13:30:38;;;;;;;8.10;4.32;;;;;;;;;;5043901;28;20037;-86
2023/06/03 13:33:03;;;;;;;8.90;4.20;;;;;;;;;;5040966;28;20132;-86
2023/06/03 13:35:29;;;;;;;9.35;3.95;;;;;;;;;;5019319;28;20053;-88
2023/06/03 13:37:54;;;;;;;7.35;3.97;;;;;;;;;;5036668;28;20045;-87
2023/06/03 13:40:20;;;;;;;7.82;3.80;;;;;;;;;;5036745;28;20055;-88
2023/06/03 13:42:46;;;;;;;12.65;4.30;;;;;;;;;;5035951;28;20063;-88
2023/06/03 13:45:12;;;;;;;8.10;3.90;;;;;;;;;;5002771;28;20030;-86
2023/06/03 13:47:38;;;;;;;9.85;4.50;;;;;;;;;;5023869;28;20503;-88
2023/06/03 13:50:05;;;;;;;7.90;3.97;;;;;;;;;;5023322;28;20099;-87
2023/06/03 13:52:31;;;;;;;10.60;4.18;;;;;;;;;;5018698;28;20091;-88
2023/06/03 13:54:56;;;;;;;8.57;4.10;;;;;;;;;;5037383;28;20407;-88
2023/06/03 13:57:22;;;;;;;11.68;4.30;;;;;;;;;;5032795;28;20032;-86
2023/06/03 13:59:48;;;;;;;8.68;4.22;;;;;;;;;;5050631;28;20036;-88
2023/06/03 14:02:14;;;;;;;7.60;3.63;;;;;;;;;;5048135;28;20038;-88
2023/06/03 14:04:41;;;;;;;7.80;4.30;;;;;;;;;;5044296;28;20046;-88
2023/06/03 14:07:06;;;;;;;5.47;3.88;;;;;;;;;;5010483;28;20033;-87
2023/06/03 14:09:32;;;;;;;9.55;4.13;;;;;;;;;;5043757;28;20541;-88
2023/06/03 14:12:00;;;;;;;7.45;4.05;;;;;;;;;;5042150;28;20077;-88
2023/06/03 14:14:25;;;;;;;8.15;4.28;;;;;;;;;;5023949;28;20037;-89
2023/06/03 14:16:51;;;;;;;7.80;4.00;;;;;;;;;;5023690;28;20033;-88
2023/06/03 14:19:16;;;;;;;5.78;3.72;;;;;;;;;;5030823;28;20418;-87
2023/06/03 14:21:42;;;;;;;9.32;4.30;;;;;;;;;;5029495;28;20040;-88
2023/06/03 14:24:08;;;;;;;8.02;4.10;;;;;;;;;;5026283;28;20403;-87
2023/06/03 14:26:37;;;;;;;9.35;4.15;;;;;;;;;;5028119;28;20037;-88
2023/06/03 14:29:04;;;;;;;7.25;4.20;;;;;;;;;;5058790;28;20085;-86
2023/06/03 14:31:32;;;;;;;7.07;4.15;;;;;;;;;;5053151;28;20037;-88
2023/06/03 14:33:57;;;;;;;8.13;4.00;;;;;;;;;;5016968;28;20036;-89
2023/06/03 14:36:23;;;;;;;7.22;4.18;;;;;;;;;;5031036;28;20527;-88
2023/06/03 14:38:48;;;;;;;8.63;4.18;;;;;;;;;;5044089;28;20063;-87
2023/06/03 14:41:15;;;;;;;8.50;4.60;;;;;;;;;;5023561;28;20569;-88
2023/06/03 14:43:40;;;;;;;10.45;4.40;;;;;;;;;;5031426;28;20506;-87
2023/06/03 14:46:06;;;;;;;8.70;3.85;;;;;;;;;;5036799;28;20052;-85